Time;durP1;ratioP1;P1;durP2;ratioP2;P2;SDS_P1;SDS_P2;PMS_P1;PMS_P2;Temp;Humidity;BMP_temperature;BMP_pressure;BME280_temperature;BME280_humidity;BME280_pressure;Samples;Min_cycle;Max_cycle;Signal;HPM_P1;HPM_P2
2022/07/24 00:01:14;;;;;;;3.30;2.17;;;17.20;99.90;;;-141.84;57.83;20539.47;5033310;28;20249;-67
2022/07/24 00:03:44;;;;;;;2.42;2.22;;;17.10;99.90;;;-141.84;55.90;20616.69;5033288;28;20253;-67
2022/07/24 00:06:12;;;;;;;3.15;2.70;;;17.20;99.90;;;-141.84;56.56;20616.69;5033300;28;20245;-67
2022/07/24 00:08:40;;;;;;;2.90;2.60;;;17.20;99.90;;;-141.84;56.78;20598.41;5033624;28;20222;-67
2022/07/24 00:11:08;;;;;;;2.38;2.17;;;17.20;99.90;;;-141.84;56.56;20618.72;5033572;28;20268;-67
2022/07/24 00:13:36;;;;;;;2.53;2.22;;;17.30;99.90;;;-141.84;56.50;20600.44;5034207;28;20217;-68
2022/07/24 00:16:06;;;;;;;2.88;2.30;;;17.30;99.90;;;-141.84;57.21;20559.78;5033034;28;20225;-67
2022/07/24 00:18:34;;;;;;;4.57;2.42;;;17.20;99.90;;;-141.84;56.23;20602.47;5033094;28;20230;-67
2022/07/24 00:21:04;;;;;;;2.83;2.20;;;17.20;99.90;;;-141.84;55.70;20614.66;5032854;28;20713;-67
2022/07/24 00:23:33;;;;;;;2.70;2.33;;;17.30;99.90;;;-141.84;56.10;20635.00;5033309;28;20240;-67
2022/07/24 00:26:01;;;;;;;2.40;2.15;;;17.20;99.90;;;-141.84;57.24;20569.94;5033294;28;20200;-67
2022/07/24 00:28:30;;;;;;;2.33;2.13;;;17.20;99.90;;;-141.84;57.65;20574.00;5033565;28;20689;-67
2022/07/24 00:30:58;;;;;;;3.00;1.65;;;17.20;99.90;;;-141.84;58.16;20531.31;5033289;28;20595;-67
2022/07/24 00:33:26;;;;;;;2.03;1.83;;;17.10;99.90;;;-141.84;58.18;20541.50;5032568;28;20222;-67
2022/07/24 00:35:54;;;;;;;4.07;2.10;;;17.00;99.90;;;-141.84;58.51;20567.91;5032852;28;20257;-67
2022/07/24 00:38:23;;;;;;;4.75;2.30;;;16.90;99.90;;;-141.84;58.74;20574.00;5033048;28;20230;-67
2022/07/24 00:40:51;;;;;;;2.30;2.10;;;16.90;99.90;;;-141.84;59.14;20531.31;5032600;28;20577;-67
2022/07/24 00:43:21;;;;;;;2.97;1.83;;;16.80;99.90;;;-141.84;59.29;20521.16;5033490;28;20206;-66
2022/07/24 00:45:49;;;;;;;2.13;1.92;;;16.70;99.90;;;-141.84;59.20;20535.41;5032831;28;20234;-67
2022/07/24 00:48:18;;;;;;;2.30;1.98;;;16.70;99.90;;;-141.84;59.34;20519.13;5032290;28;20242;-67
2022/07/24 00:50:48;;;;;;;2.17;1.92;;;16.70;99.90;;;-141.84;59.69;20508.97;5032409;28;20234;-67
2022/07/24 00:53:17;;;;;;;2.88;2.25;;;16.70;99.90;;;-141.84;59.58;20511.00;5032767;28;20240;-66
2022/07/24 00:55:46;;;;;;;3.45;2.60;;;16.60;99.90;;;-141.84;59.66;20523.19;5033352;28;20202;-67
2022/07/24 00:58:15;;;;;;;2.47;2.22;;;16.60;99.90;;;-141.84;59.92;20466.28;5032286;28;20251;-67
2022/07/24 01:00:43;;;;;;;2.95;2.45;;;16.50;99.90;;;-141.84;60.35;20476.44;5032386;28;20243;-67
2022/07/24 01:03:13;;;;;;;2.88;2.53;;;16.40;99.90;;;-141.84;60.83;20447.97;5032320;28;20320;-67
2022/07/24 01:05:41;;;;;;;2.92;2.72;;;16.40;99.90;;;-141.84;61.00;20437.81;5032059;28;20635;-67
2022/07/24 01:08:09;;;;;;;3.03;2.80;;;16.30;99.90;;;-141.84;61.65;20431.72;5031882;28;20218;-68
2022/07/24 01:10:42;;;;;;;3.83;2.80;;;16.30;99.90;;;-141.84;62.06;20443.91;5033089;28;20186;-66
2022/07/24 01:13:12;;;;;;;3.00;2.80;;;16.30;99.90;;;-141.84;61.14;20464.25;5032053;28;20218;-67
2022/07/24 01:15:40;;;;;;;4.28;3.13;;;16.40;99.90;;;-141.84;61.18;20468.31;5032142;28;20238;-67
2022/07/24 01:18:08;;;;;;;4.35;3.00;;;16.40;99.90;;;-141.84;61.33;20452.06;5031880;28;20725;-67
2022/07/24 01:20:39;;;;;;;5.07;3.00;;;16.40;99.90;;;-141.84;61.41;20456.13;5032095;28;20230;-68
2022/07/24 01:23:07;;;;;;;3.55;3.20;;;16.30;99.90;;;-141.84;61.66;20407.34;5031927;28;20720;-67
2022/07/24 01:25:35;;;;;;;3.58;3.20;;;16.30;99.90;;;-141.84;61.61;20423.59;5032737;28;20212;-66
2022/07/24 01:28:04;;;;;;;3.38;3.08;;;16.20;99.90;;;-141.84;62.09;20427.66;5032050;28;20597;-66
2022/07/24 01:30:32;;;;;;;4.05;3.45;;;16.10;99.90;;;-141.84;62.54;20433.75;5031579;28;20603;-67
2022/07/24 01:33:02;;;;;;;4.00;3.60;;;16.10;99.90;;;-141.84;62.72;20407.34;5031756;28;20230;-67
2022/07/24 01:35:30;;;;;;;6.82;4.18;;;16.10;99.90;;;-141.84;63.17;20439.84;5031540;28;20717;-67
2022/07/24 01:38:00;;;;;;;5.05;4.57;;;16.10;99.90;;;-141.84;64.04;20415.47;5031895;28;20213;-67
2022/07/24 01:40:28;;;;;;;4.78;4.38;;;16.10;99.90;;;-141.84;64.71;20380.91;5032279;28;20550;-67
2022/07/24 01:42:56;;;;;;;4.63;4.10;;;16.00;99.90;;;-141.84;65.04;20419.53;5031521;28;20222;-67
2022/07/24 01:45:25;;;;;;;4.80;4.40;;;16.00;99.90;;;-141.84;64.72;20393.09;5031549;28;20230;-66
2022/07/24 01:47:54;;;;;;;6.20;4.60;;;16.00;99.90;;;-141.84;64.88;20413.44;5031434;28;20305;-67
2022/07/24 01:50:22;;;;;;;4.72;4.32;;;16.00;99.90;;;-141.84;64.47;20421.56;5031396;28;20226;-67
2022/07/24 01:52:50;;;;;;;4.90;4.25;;;16.10;99.90;;;-141.84;64.70;20407.34;5032065;28;20208;-66
2022/07/24 01:55:19;;;;;;;5.10;4.47;;;16.10;99.90;;;-141.84;65.49;20374.81;5031864;28;20222;-67
2022/07/24 01:57:48;;;;;;;4.88;4.40;;;16.00;99.90;;;-141.84;64.88;20395.13;5031345;28;20236;-66
2022/07/24 02:00:17;;;;;;;4.38;4.07;;;16.00;99.90;;;-141.84;65.02;20362.63;5030787;28;20743;-67
2022/07/24 02:02:47;;;;;;;4.15;3.75;;;15.90;99.90;;;-141.84;64.99;20356.50;5030939;28;20233;-68
2022/07/24 02:05:16;;;;;;;4.45;4.05;;;15.90;99.90;;;-141.84;65.14;20332.13;5031212;28;20229;-67
2022/07/24 02:07:45;;;;;;;4.63;4.18;;;15.80;99.90;;;-141.84;65.91;20348.38;5031754;28;20229;-67
2022/07/24 02:10:14;;;;;;;5.07;4.60;;;15.80;99.90;;;-141.84;66.00;20342.28;5031059;28;20236;-66
2022/07/24 02:12:44;;;;;;;5.18;4.70;;;15.80;99.90;;;-141.84;65.86;20382.94;5031213;28;20624;-66
2022/07/24 02:15:12;;;;;;;4.78;4.38;;;15.80;99.90;;;-141.84;66.14;20362.63;5030979;28;20577;-68
2022/07/24 02:17:46;;;;;;;4.55;4.15;;;15.80;99.90;;;-141.84;65.98;20391.06;5031081;28;20218;-67
2022/07/24 02:20:15;;;;;;;4.97;4.47;;;15.80;99.90;;;-141.84;66.00;20360.59;5029832;28;20579;-67
2022/07/24 02:22:44;;;;;;;5.03;4.63;;;15.80;99.90;;;-141.84;66.31;20313.84;5031610;28;20222;-67
2022/07/24 02:25:13;;;;;;;4.80;4.25;;;15.80;99.90;;;-141.84;66.55;20354.47;5030808;28;20226;-67
2022/07/24 02:27:44;;;;;;;4.72;4.30;;;15.80;99.90;;;-141.84;66.29;20328.06;5030966;28;20253;-66
2022/07/24 02:30:16;;;;;;;4.70;4.30;;;15.70;99.90;;;-141.84;66.82;20301.63;5030692;28;20229;-67
2022/07/24 02:32:44;;;;;;;4.57;4.18;;;15.70;99.90;;;-141.84;66.50;20309.75;5030874;28;20226;-67
2022/07/24 02:35:13;;;;;;;4.70;4.30;;;15.70;99.90;;;-141.84;66.02;20330.09;5030533;28;20226;-67
2022/07/24 02:37:45;;;;;;;5.10;4.55;;;15.80;99.90;;;-141.84;65.94;20334.16;5031210;28;20657;-68
2022/07/24 02:40:15;;;;;;;4.55;4.00;;;15.70;99.90;;;-141.84;66.36;20307.72;5030407;28;20256;-67
2022/07/24 02:42:44;;;;;;;5.25;4.10;;;15.70;99.90;;;-141.84;65.77;20368.72;5030633;28;20226;-67
2022/07/24 02:45:12;;;;;;;4.82;4.43;;;15.70;99.90;;;-141.84;65.63;20374.81;5030292;28;20268;-67
2022/07/24 02:47:49;;;;;;;4.45;4.00;;;15.80;99.90;;;-141.84;66.09;20346.34;5030727;28;20218;-68
2022/07/24 02:50:19;;;;;;;4.13;3.72;;;15.70;99.90;;;-141.84;66.33;20313.84;5030221;28;20251;-67
2022/07/24 02:52:49;;;;;;;4.38;3.92;;;15.60;99.90;;;-141.84;66.22;20295.53;5031159;28;20194;-66
2022/07/24 02:55:17;;;;;;;4.53;4.13;;;15.60;99.90;;;-141.84;66.40;20326.03;5030710;28;20214;-66
2022/07/24 02:57:47;;;;;;;4.30;4.00;;;15.60;99.90;;;-141.84;66.05;20321.97;5030330;28;20226;-66
2022/07/24 03:00:17;;;;;;;4.47;4.07;;;15.60;99.90;;;-141.84;67.33;20260.97;5029487;28;20232;-68
2022/07/24 03:02:46;;;;;;;4.75;4.03;;;15.50;99.90;;;-141.84;66.56;20309.75;5030459;28;20228;-68
2022/07/24 03:05:14;;;;;;;4.30;3.90;;;15.60;99.90;;;-141.84;66.30;20311.78;5030137;28;20222;-67
2022/07/24 03:07:42;;;;;;;5.15;3.80;;;15.50;99.90;;;-141.84;66.50;20317.91;5030649;28;20301;-66
2022/07/24 03:10:13;;;;;;;5.10;4.40;;;15.50;99.90;;;-141.84;66.24;20374.81;5030052;28;20226;-68
2022/07/24 03:12:42;;;;;;;4.15;3.75;;;15.60;99.90;;;-141.84;66.28;20360.59;5030180;28;20580;-66
2022/07/24 03:15:13;;;;;;;5.43;4.25;;;15.60;99.90;;;-141.84;66.51;20289.44;5029704;28;20251;-67
2022/07/24 03:17:51;;;;;;;4.32;3.92;;;15.60;99.90;;;-141.84;66.44;20338.22;5030085;28;20225;-67
2022/07/24 03:20:22;;;;;;;4.30;3.80;;;15.50;99.90;;;-141.84;66.56;20326.03;5030246;28;20226;-67
2022/07/24 03:22:50;;;;;;;4.60;4.15;;;15.50;99.90;;;-141.84;66.81;20313.84;5030680;28;20214;-68
2022/07/24 03:25:19;;;;;;;4.28;3.88;;;15.50;99.90;;;-141.84;66.68;20309.75;5030247;28;20308;-68
2022/07/24 03:27:48;;;;;;;4.60;3.97;;;15.50;99.90;;;-141.84;66.87;20267.09;5029897;28;20879;-66
2022/07/24 03:30:18;;;;;;;5.03;4.47;;;15.40;99.90;;;-141.84;67.25;20297.56;5029677;28;20312;-67
2022/07/24 03:32:47;;;;;;;5.35;4.50;;;15.40;99.90;;;-141.84;67.52;20275.22;5034074;28;20241;-68
2022/07/24 03:35:15;;;;;;;5.03;4.63;;;15.40;99.90;;;-141.84;66.88;20285.38;5034011;28;20225;-67
2022/07/24 03:37:43;;;;;;;4.82;4.43;;;15.40;99.90;;;-141.84;67.31;20277.25;5034784;28;20269;-67
2022/07/24 03:40:12;;;;;;;5.00;4.60;;;15.40;99.90;;;-141.84;67.60;20265.03;5033797;28;20226;-68
2022/07/24 03:42:41;;;;;;;4.50;4.20;;;15.40;99.90;;;-141.84;68.01;20260.97;5033854;28;20260;-68
2022/07/24 03:45:10;;;;;;;4.85;4.45;;;15.40;99.90;;;-141.84;67.50;20311.78;5033575;28;20229;-67
2022/07/24 03:47:39;;;;;;;5.10;4.60;;;15.50;99.90;;;-141.84;67.59;20283.34;5033921;28;20594;-67
2022/07/24 03:50:09;;;;;;;5.07;4.68;;;15.40;99.90;;;-141.84;67.46;20305.69;5033333;28;20607;-67
2022/07/24 03:52:37;;;;;;;4.75;4.35;;;15.40;99.90;;;-141.84;67.43;20295.53;5034553;28;20284;-66
2022/07/24 03:55:07;;;;;;;5.03;4.63;;;15.40;99.90;;;-141.84;67.26;20305.69;5033709;28;20221;-66
2022/07/24 03:57:35;;;;;;;5.65;4.40;;;15.40;99.90;;;-141.84;67.89;20285.38;5033831;28;20288;-68
2022/07/24 04:00:06;;;;;;;5.10;4.70;;;15.50;99.90;;;-141.84;68.71;20285.38;5016578;28;20731;-67
2022/07/24 04:02:35;;;;;;;6.32;4.97;;;15.40;99.90;;;-141.84;67.82;20269.13;5013948;28;20310;-68
2022/07/24 04:05:08;;;;;;;5.45;5.00;;;15.40;99.90;;;-141.84;67.73;20297.56;5013633;28;20237;-69
2022/07/24 04:07:36;;;;;;;5.63;4.72;;;15.50;99.90;;;-141.84;68.02;20303.66;5014783;28;20187;-67
2022/07/24 04:10:08;;;;;;;5.65;5.13;;;15.50;99.90;;;-141.84;67.84;20293.50;5013604;28;20266;-68
2022/07/24 04:12:36;;;;;;;5.20;4.80;;;15.60;99.90;;;-141.84;68.25;20321.97;5012796;28;20233;-67
2022/07/24 04:15:05;;;;;;;7.00;4.80;;;15.60;99.90;;;-141.84;67.92;20299.59;5013072;28;20223;-67
2022/07/24 04:17:33;;;;;;;4.70;4.30;;;15.70;99.90;;;-141.84;68.20;20271.16;5013686;28;20285;-68
2022/07/24 04:20:02;;;;;;;6.55;4.97;;;15.70;99.90;;;-141.84;68.29;20307.72;5020358;28;20216;-67
2022/07/24 04:22:31;;;;;;;5.40;4.90;;;15.70;99.90;;;-141.84;67.10;20324.00;5033997;28;20281;-67
2022/07/24 04:24:59;;;;;;;5.45;4.97;;;15.80;99.90;;;-141.84;67.27;20354.47;5032558;28;20241;-66
2022/07/24 04:27:27;;;;;;;4.80;4.40;;;15.90;99.90;;;-141.84;67.42;20321.97;5031961;28;20256;-61
2022/07/24 04:29:55;;;;;;;5.25;4.75;;;15.90;99.90;;;-141.84;68.11;20324.00;5032903;28;20226;-60
2022/07/24 04:32:23;;;;;;;5.72;4.70;;;15.90;99.90;;;-141.84;68.68;20380.91;5032416;28;20717;-63
2022/07/24 04:34:51;;;;;;;5.10;4.70;;;15.90;99.90;;;-141.84;67.89;20370.75;5032657;28;20565;-64
2022/07/24 04:37:19;;;;;;;5.55;4.60;;;16.00;99.90;;;-141.84;67.96;20354.47;5029901;28;20574;-61
2022/07/24 04:39:49;;;;;;;5.10;4.50;;;16.10;99.90;;;-141.84;67.50;20391.06;5033008;28;20234;-62
2022/07/24 04:42:17;;;;;;;4.88;4.47;;;16.10;99.90;;;-141.84;66.96;20376.84;5032386;28;20313;-62
2022/07/24 04:44:45;;;;;;;4.93;4.43;;;16.20;99.90;;;-141.84;66.89;20387.00;5032814;28;20226;-62
2022/07/24 04:47:13;;;;;;;5.32;4.90;;;16.20;99.90;;;-141.84;66.69;20429.69;5032899;28;20232;-61
2022/07/24 04:49:42;;;;;;;5.50;4.63;;;16.30;99.90;;;-141.84;66.00;20460.19;5033300;28;20210;-62
2022/07/24 04:52:10;;;;;;;5.60;5.10;;;16.40;99.90;;;-141.84;65.39;20443.91;5031751;28;20221;-62
2022/07/24 04:54:38;;;;;;;10.00;5.60;;;16.50;99.90;;;-141.84;64.65;20464.25;5032617;28;20236;-62
2022/07/24 04:57:07;;;;;;;6.07;5.38;;;16.70;99.90;;;-141.84;65.29;20478.47;5032451;28;20240;-62
2022/07/24 04:59:35;;;;;;;5.43;4.93;;;16.80;99.90;;;-141.84;65.34;20478.47;5019666;28;20722;-62
2022/07/24 05:02:03;;;;;;;6.72;5.00;;;16.90;99.90;;;-141.84;62.97;20740.69;5012522;28;20670;-61
2022/07/24 05:04:34;;;;;;;4.78;4.30;;;17.60;99.90;;;-141.84;54.96;21116.78;5013394;28;20227;-62
2022/07/24 05:07:02;;;;;;;5.18;4.28;;;18.80;99.90;;;-141.84;48.84;21549.84;5012023;28;20313;-62
2022/07/24 05:09:30;;;;;;;7.30;4.38;;;20.40;99.90;;;-141.84;42.06;22046.00;5012516;28;20616;-63
2022/07/24 05:11:58;;;;;;;4.90;4.47;;;21.50;99.90;;;-141.84;40.72;22259.53;5012546;28;20241;-62
2022/07/24 05:14:28;;;;;;;4.95;4.07;;;22.50;99.90;;;-141.84;39.44;22450.69;5012558;28;20232;-62
2022/07/24 05:16:56;;;;;;;4.75;4.13;;;23.30;99.90;;;-141.84;37.92;22625.59;5012342;28;20203;-63
2022/07/24 05:19:24;;;;;;;4.28;3.97;;;23.70;99.90;;;-141.84;37.71;22631.72;5014972;28;20202;-62
2022/07/24 05:21:52;;;;;;;5.78;3.63;;;24.40;99.90;;;-141.84;36.64;22794.41;5031639;28;20232;-61
2022/07/24 05:24:20;;;;;;;4.05;3.65;;;24.50;99.90;;;-141.84;36.66;22798.47;5032161;28;20237;-63
2022/07/24 05:26:48;;;;;;;4.70;4.20;;;24.20;99.90;;;-141.84;36.41;22794.41;5031836;28;20605;-61
2022/07/24 05:29:18;;;;;;;4.75;4.10;;;24.00;99.90;;;-141.84;37.03;22631.72;5032092;28;20226;-62
2022/07/24 05:31:47;;;;;;;5.18;4.20;;;23.80;99.90;;;-141.84;37.81;22527.97;5032322;28;20198;-62
2022/07/24 05:34:15;;;;;;;4.18;3.78;;;23.90;99.90;;;-141.84;40.21;22176.16;5031652;28;20222;-62
2022/07/24 05:36:43;;;;;;;4.82;4.30;;;23.40;99.90;;;-141.84;42.16;21869.09;5031117;28;20313;-62
2022/07/24 05:39:11;;;;;;;4.90;4.00;;;22.60;99.90;;;-141.84;44.27;21684.06;5032022;28;20230;-62
2022/07/24 05:41:39;;;;;;;7.30;5.00;;;22.00;99.90;;;-141.84;45.88;21484.78;5031766;28;20230;-62
2022/07/24 05:44:08;;;;;;;4.07;3.67;;;21.50;99.90;;;-141.84;47.24;21377.03;5031696;28;20248;-62
2022/07/24 05:46:36;;;;;;;7.10;4.03;;;21.30;99.90;;;-141.84;48.60;21346.53;5032103;28;20202;-61
2022/07/24 05:49:05;;;;;;;5.00;4.50;;;21.10;99.90;;;-141.84;49.77;21265.22;5031268;28;20225;-61
2022/07/24 05:51:34;;;;;;;4.60;4.10;;;20.90;99.90;;;-141.84;49.57;21257.09;5030842;28;20417;-62
2022/07/24 05:54:02;;;;;;;5.13;3.70;;;20.80;99.90;;;-141.84;49.68;21293.69;5031492;28;20222;-61
2022/07/24 05:56:31;;;;;;;3.83;3.53;;;20.80;99.90;;;-141.84;48.83;21244.88;5031563;28;20257;-61
2022/07/24 05:58:59;;;;;;;4.68;3.67;;;20.80;99.90;;;-141.84;49.77;21257.09;5031619;28;20209;-62
2022/07/24 06:01:27;;;;;;;3.72;3.42;;;20.80;99.90;;;-141.84;49.97;21281.47;5032149;28;20209;-62
2022/07/24 06:03:55;;;;;;;4.28;3.20;;;20.90;99.90;;;-141.84;48.87;21271.31;5031190;28;20240;-62
2022/07/24 06:06:24;;;;;;;3.67;3.45;;;21.00;99.90;;;-141.84;48.70;21289.59;5030937;28;20744;-62
2022/07/24 06:08:53;;;;;;;3.90;3.50;;;21.10;99.90;;;-141.84;49.25;21291.66;5031254;28;20230;-62
2022/07/24 06:11:22;;;;;;;5.85;3.78;;;21.10;99.90;;;-141.84;49.24;21303.84;5031162;28;20734;-62
2022/07/24 06:13:51;;;;;;;3.50;3.20;;;21.10;99.90;;;-141.84;48.88;21320.09;5031349;28;20206;-62
2022/07/24 06:16:20;;;;;;;4.00;3.60;;;21.30;99.90;;;-141.84;49.04;21314.00;5031785;28;20206;-62
2022/07/24 06:18:48;;;;;;;5.80;3.40;;;21.30;99.90;;;-141.84;49.01;21311.97;5031344;28;20257;-61
2022/07/24 06:21:16;;;;;;;4.05;3.60;;;21.30;99.90;;;-141.84;48.76;21346.53;5030545;28;20252;-62
2022/07/24 06:23:46;;;;;;;4.75;3.28;;;21.50;99.90;;;-141.84;47.29;21362.81;5031008;28;20221;-62
2022/07/24 06:26:14;;;;;;;3.50;3.20;;;21.60;99.90;;;-141.84;47.12;21368.91;5030857;28;20710;-62
2022/07/24 06:28:42;;;;;;;4.00;3.50;;;21.50;99.90;;;-141.84;46.84;21336.38;5031600;28;20198;-62
2022/07/24 06:31:10;;;;;;;4.53;3.15;;;21.50;99.90;;;-141.84;47.48;21366.88;5031093;28;20233;-62
2022/07/24 06:33:44;;;;;;;3.80;3.10;;;21.40;99.90;;;-141.84;47.83;21346.53;5031243;28;20294;-63
2022/07/24 06:36:12;;;;;;;2.80;2.60;;;21.60;99.90;;;-141.84;46.51;21411.59;5030420;28;20232;-62
2022/07/24 06:38:40;;;;;;;3.63;2.70;;;21.60;99.90;;;-141.84;46.83;21431.94;5030643;28;20229;-62
2022/07/24 06:41:12;;;;;;;3.78;3.47;;;21.70;99.90;;;-141.84;47.57;21429.91;5030923;28;20355;-62
2022/07/24 06:43:41;;;;;;;3.50;3.20;;;21.70;99.90;;;-141.84;47.99;21440.06;5030996;28;20289;-62
2022/07/24 06:46:09;;;;;;;4.13;3.53;;;21.80;99.90;;;-141.84;48.49;21436.00;5030426;28;20245;-62
2022/07/24 06:48:38;;;;;;;3.28;2.97;;;22.00;99.90;;;-141.84;46.86;21440.06;5030801;28;20237;-63
2022/07/24 06:51:06;;;;;;;3.17;2.75;;;22.00;99.90;;;-141.84;46.05;21482.75;5030183;28;20284;-63
2022/07/24 06:53:34;;;;;;;3.47;3.08;;;22.00;99.90;;;-141.84;46.01;21456.34;5030576;28;20302;-62
2022/07/24 06:56:02;;;;;;;4.20;2.90;;;22.10;99.90;;;-141.84;46.10;21446.16;5015434;28;20195;-62
2022/07/24 06:58:32;;;;;;;3.35;3.05;;;22.20;99.90;;;-141.84;46.03;21499.03;5016004;28;20194;-62
2022/07/24 07:01:00;;;;;;;4.10;2.50;;;22.20;99.90;;;-141.84;44.29;21497.00;5031119;28;20725;-63
2022/07/24 07:03:28;;;;;;;3.00;2.38;;;22.10;99.90;;;-141.84;44.27;21468.53;5031074;28;20234;-62
2022/07/24 07:05:56;;;;;;;2.47;2.22;;;22.10;99.90;;;-141.84;44.91;21478.69;5030258;28;20320;-61
2022/07/24 07:08:24;;;;;;;3.28;2.08;;;22.10;99.90;;;-141.84;44.34;21488.88;5031110;28;20222;-62
2022/07/24 07:10:52;;;;;;;3.00;2.70;;;22.20;99.90;;;-141.84;44.84;21513.25;5031030;28;20730;-63
2022/07/24 07:13:20;;;;;;;3.15;2.30;;;22.30;99.90;;;-141.84;43.20;21541.72;5031484;28;20208;-62
2022/07/24 07:15:50;;;;;;;2.33;2.00;;;22.40;99.90;;;-141.84;43.41;21555.97;5031164;28;20222;-62
2022/07/24 07:18:18;;;;;;;2.05;1.85;;;22.40;99.90;;;-141.84;43.84;21545.78;5030803;28;20225;-61
2022/07/24 07:20:47;;;;;;;3.90;2.00;;;22.40;99.90;;;-141.84;43.16;21547.81;5030707;28;20236;-62
2022/07/24 07:23:15;;;;;;;3.88;2.28;;;22.40;99.90;;;-141.84;44.09;21539.69;5030901;28;20256;-61
2022/07/24 07:25:43;;;;;;;2.45;1.70;;;22.50;99.90;;;-141.84;43.33;21570.19;5031290;28;20224;-62
2022/07/24 07:28:11;;;;;;;1.75;1.65;;;22.50;99.90;;;-141.84;43.28;21551.91;5030580;28;20232;-62
2022/07/24 07:30:40;;;;;;;2.45;1.90;;;22.50;99.90;;;-141.84;43.10;21562.06;5029788;28;20233;-62
2022/07/24 07:33:09;;;;;;;2.20;2.00;;;22.50;99.90;;;-141.84;43.10;21610.84;5030855;28;20230;-62
2022/07/24 07:35:38;;;;;;;1.90;1.80;;;22.50;99.90;;;-141.84;43.57;21588.50;5030447;28;20222;-62
2022/07/24 07:38:06;;;;;;;2.13;1.92;;;22.60;99.90;;;-141.84;43.30;21553.94;5031024;28;20206;-62
2022/07/24 07:40:34;;;;;;;2.33;1.80;;;22.50;99.90;;;-141.84;43.40;21527.50;5031058;28;20538;-61
2022/07/24 07:43:02;;;;;;;2.33;1.80;;;22.50;99.90;;;-141.84;43.88;21507.16;5030667;28;20249;-62
2022/07/24 07:45:30;;;;;;;1.70;1.60;;;22.30;99.90;;;-141.84;44.07;21511.22;5030614;28;20773;-63
2022/07/24 07:47:59;;;;;;;3.78;1.75;;;22.30;99.90;;;-141.84;43.84;21525.47;5030634;28;20317;-61
2022/07/24 07:50:29;;;;;;;1.80;1.70;;;22.40;99.90;;;-141.84;43.26;21519.34;5030410;28;20304;-62
2022/07/24 07:52:57;;;;;;;2.05;1.83;;;22.40;99.90;;;-141.84;43.73;21482.75;5031693;28;20210;-62
2022/07/24 07:55:25;;;;;;;1.60;1.40;;;22.30;99.90;;;-141.84;43.98;21499.03;5032100;28;20592;-61
2022/07/24 07:57:53;;;;;;;2.33;1.70;;;22.20;99.90;;;-141.84;44.48;21494.97;5031417;28;20806;-61
2022/07/24 08:00:37;;;;;;;2.10;1.88;;;22.20;99.90;;;-141.84;44.12;21527.50;5011538;28;20333;-62
2022/07/24 08:03:05;;;;;;;1.75;1.65;;;22.40;99.90;;;-141.84;44.09;21529.53;5011687;28;20226;-62
2022/07/24 08:05:34;;;;;;;1.90;1.80;;;22.40;99.90;;;-141.84;43.93;21566.13;5011261;28;20254;-62
2022/07/24 08:08:03;;;;;;;2.50;1.60;;;22.40;99.90;;;-141.84;44.35;21525.47;5011451;28;20215;-61
2022/07/24 08:10:31;;;;;;;2.22;1.60;;;22.40;99.90;;;-141.84;44.24;21517.31;5012218;28;20202;-61
2022/07/24 08:12:59;;;;;;;2.38;1.80;;;22.40;99.90;;;-141.84;44.52;21531.56;5011683;28;20581;-61
2022/07/24 08:15:27;;;;;;;3.22;2.25;;;22.50;99.90;;;-141.84;43.30;21582.38;5011289;28;20226;-62
2022/07/24 08:17:57;;;;;;;2.35;1.77;;;22.50;99.90;;;-141.84;43.58;21610.84;5012020;28;20735;-62
2022/07/24 08:20:27;;;;;;;1.80;1.70;;;22.60;99.90;;;-141.84;43.61;21574.25;5016894;28;20222;-62
2022/07/24 08:22:57;;;;;;;2.53;2.00;;;22.60;99.90;;;-141.84;44.32;21535.63;5015382;28;20313;-64
2022/07/24 08:25:26;;;;;;;2.40;2.00;;;22.60;99.90;;;-141.84;43.37;21629.16;5015623;28;20269;-62
2022/07/24 08:27:55;;;;;;;1.95;1.77;;;22.60;99.90;;;-141.84;42.98;21606.78;5014129;28;20226;-62
2022/07/24 08:30:25;;;;;;;3.50;2.30;;;22.70;99.90;;;-141.84;43.73;21600.69;5014005;28;20744;-61
2022/07/24 08:32:53;;;;;;;3.40;1.90;;;22.60;99.90;;;-141.84;43.78;21533.59;5014110;28;20241;-62
2022/07/24 08:35:23;;;;;;;2.30;2.10;;;22.60;99.90;;;-141.84;43.78;21549.84;5013833;28;20280;-62
2022/07/24 08:38:01;;;;;;;2.47;2.00;;;22.60;99.90;;;-141.84;43.92;21580.34;5032894;28;20213;-62
2022/07/24 08:40:36;;;;;;;2.55;1.70;;;22.60;99.90;;;-141.84;43.85;21590.53;5034751;28;20198;-62
2022/07/24 08:43:06;;;;;;;2.88;1.85;;;22.60;99.90;;;-141.84;43.96;21566.13;5033778;28;20239;-61
2022/07/24 08:45:38;;;;;;;2.80;1.70;;;22.70;99.90;;;-141.84;44.04;21616.97;5033743;28;20233;-62
2022/07/24 08:48:09;;;;;;;2.97;2.03;;;22.80;99.90;;;-141.84;43.40;21651.53;5033722;28;20226;-62
2022/07/24 08:50:41;;;;;;;2.67;1.70;;;22.90;99.90;;;-141.84;43.20;21680.00;5033091;28;20222;-61
2022/07/24 08:53:11;;;;;;;2.20;2.08;;;23.00;99.90;;;-141.84;41.92;21736.94;5034005;28;20190;-62
2022/07/24 08:55:39;;;;;;;3.35;2.00;;;23.10;99.90;;;-141.84;42.51;21722.69;5034352;28;20524;-62
2022/07/24 08:58:07;;;;;;;2.10;2.00;;;23.10;99.90;;;-141.84;42.79;21690.16;5033319;28;20226;-62
2022/07/24 09:00:35;;;;;;;2.00;1.90;;;23.10;99.90;;;-141.84;42.88;21675.94;5033287;28;20222;-63
2022/07/24 09:03:04;;;;;;;2.47;2.20;;;23.00;99.90;;;-141.84;42.90;21712.53;5033365;28;20237;-62
2022/07/24 09:05:34;;;;;;;1.90;1.80;;;23.10;99.90;;;-141.84;42.63;21700.31;5032933;28;20238;-61
2022/07/24 09:08:14;;;;;;;2.00;1.80;;;23.20;99.90;;;-141.84;42.49;21716.59;5033622;28;20273;-61
2022/07/24 09:10:56;;;;;;;2.10;1.90;;;23.20;99.90;;;-141.84;42.30;21745.06;5033786;28;20642;-60
2022/07/24 09:13:29;;;;;;;2.20;1.90;;;23.30;99.90;;;-141.84;42.11;21785.72;5033846;28;20804;-61
2022/07/24 09:15:57;;;;;;;3.22;2.13;;;23.40;99.90;;;-141.84;42.13;21773.53;5033162;28;20218;-62
2022/07/24 09:18:29;;;;;;;2.42;1.77;;;23.40;99.90;;;-141.84;42.19;21730.81;5033078;28;20229;-62
2022/07/24 09:20:59;;;;;;;2.63;1.75;;;23.40;99.90;;;-141.84;42.15;21783.69;5032996;28;20304;-63
2022/07/24 09:23:28;;;;;;;1.90;1.80;;;23.50;99.90;;;-141.84;42.51;21779.63;5033024;28;20221;-61
2022/07/24 09:25:56;;;;;;;2.17;1.98;;;23.50;99.90;;;-141.84;41.84;21791.81;5031044;28;20724;-62
2022/07/24 09:28:26;;;;;;;1.88;1.77;;;23.50;99.90;;;-141.84;42.16;21785.72;5032982;28;20213;-61
2022/07/24 09:31:01;;;;;;;2.03;1.92;;;23.70;99.90;;;-141.84;41.44;21877.22;5032935;28;20234;-62
2022/07/24 09:33:37;;;;;;;3.30;1.90;;;23.80;99.90;;;-141.84;40.86;21899.59;5032142;28;20233;-62
2022/07/24 09:36:14;;;;;;;4.55;2.20;;;23.90;99.90;;;-141.84;40.67;21924.00;5032479;28;20232;-63
2022/07/24 09:38:49;;;;;;;2.78;2.03;;;23.90;99.90;;;-141.84;40.20;21938.22;5031455;28;20226;-62
2022/07/24 09:41:22;;;;;;;3.58;2.22;;;24.00;99.90;;;-141.84;39.92;21940.25;5032734;28;20231;-62
2022/07/24 09:44:02;;;;;;;2.33;2.10;;;24.00;99.90;;;-141.84;40.50;21889.44;5032461;28;20198;-66
2022/07/24 09:46:48;;;;;;;4.30;2.33;;;24.00;99.90;;;-141.84;40.38;21928.06;5012075;28;20217;-62
2022/07/24 09:49:21;;;;;;;2.60;2.40;;;24.10;99.90;;;-141.84;40.64;21940.25;5018174;28;20210;-63
2022/07/24 09:52:12;;;;;;;2.50;2.10;;;24.20;99.90;;;-141.84;40.27;21952.47;5029590;28;20742;-63
2022/07/24 09:54:45;;;;;;;1.90;1.60;;;24.20;99.90;;;-141.84;40.07;21950.44;5012376;28;20317;-64
2022/07/24 09:57:22;;;;;;;1.92;1.80;;;24.20;99.90;;;-141.84;39.92;21954.50;5023355;28;20245;-63
2022/07/24 09:59:53;;;;;;;2.20;2.00;;;24.20;99.90;;;-141.84;40.26;21934.16;5032088;28;20233;-62
2022/07/24 10:02:27;;;;;;;2.17;1.98;;;24.20;99.90;;;-141.84;39.43;22007.38;5032216;28;20309;-62
2022/07/24 10:04:57;;;;;;;3.13;2.10;;;24.20;99.90;;;-141.84;39.71;21982.97;5027787;28;20252;-62
2022/07/24 10:07:28;;;;;;;2.20;2.00;;;24.30;99.90;;;-141.84;39.80;21970.78;5024609;28;20776;-62
2022/07/24 10:10:00;;;;;;;2.10;2.00;;;24.30;99.90;;;-141.84;40.24;21911.78;5021628;28;20225;-63
2022/07/24 10:12:32;;;;;;;2.40;2.20;;;24.20;99.90;;;-141.84;40.05;21972.81;5012063;28;20261;-63
2022/07/24 10:15:03;;;;;;;2.22;2.03;;;24.30;99.90;;;-141.84;38.80;22015.50;5011911;28;20798;-62